createdAt,value
2018-09-21T00:00:57.438Z,7.30
2018-09-21T00:03:25.855Z,7.00
2018-09-21T00:05:54.297Z,6.70
2018-09-21T00:08:22.762Z,6.57
2018-09-21T00:10:51.204Z,6.77
2018-09-21T00:13:19.605Z,6.53
2018-09-21T00:15:48.043Z,7.00
2018-09-21T00:18:16.459Z,6.50
2018-09-21T00:20:44.906Z,6.43
2018-09-21T00:23:13.289Z,6.53
2018-09-21T00:25:41.902Z,6.37
2018-09-21T00:28:10.302Z,6.50
2018-09-21T00:30:38.690Z,6.47
2018-09-21T00:33:07.139Z,6.67
2018-09-21T00:35:35.546Z,6.43
2018-09-21T00:38:03.979Z,7.17
2018-09-21T00:40:32.386Z,6.87
2018-09-21T00:43:00.883Z,6.93
2018-09-21T00:45:29.286Z,6.70
2018-09-21T00:47:57.733Z,6.13
2018-09-21T00:50:26.152Z,5.93
2018-09-21T00:52:54.589Z,6.50
2018-09-21T00:55:23.001Z,6.30
2018-09-21T00:57:51.425Z,6.67
2018-09-21T01:00:19.931Z,6.50
2018-09-21T01:02:48.405Z,6.53
2018-09-21T01:05:16.834Z,7.20
2018-09-21T01:07:45.301Z,6.10
2018-09-21T01:10:13.748Z,6.63
2018-09-21T01:12:42.239Z,6.03
2018-09-21T01:15:10.707Z,6.00
2018-09-21T01:17:39.187Z,6.10
2018-09-21T01:20:07.634Z,6.40
2018-09-21T01:22:36.088Z,6.40
2018-09-21T01:25:04.599Z,6.03
2018-09-21T01:27:33.048Z,6.20
2018-09-21T01:30:02.150Z,6.27
2018-09-21T01:32:30.583Z,6.20
2018-09-21T01:34:59.056Z,5.60
2018-09-21T01:37:27.542Z,6.30
2018-09-21T01:39:56.019Z,5.73
2018-09-21T01:42:24.456Z,5.80
2018-09-21T01:44:52.936Z,6.07
2018-09-21T01:47:21.395Z,6.57
2018-09-21T01:49:49.874Z,6.00
2018-09-21T01:52:18.374Z,5.47
2018-09-21T01:54:46.858Z,5.57
2018-09-21T01:57:15.316Z,5.93
2018-09-21T01:59:43.757Z,5.90
2018-09-21T02:02:12.186Z,5.60
2018-09-21T02:04:41.370Z,5.77
2018-09-21T02:07:11.575Z,5.47
2018-09-21T02:09:40.676Z,5.47
2018-09-21T02:12:09.091Z,5.40
2018-09-21T02:14:37.554Z,5.03
2018-09-21T02:17:06.459Z,5.57
2018-09-21T02:19:34.945Z,5.30
2018-09-21T02:22:03.479Z,6.33
2018-09-21T02:24:31.958Z,6.03
2018-09-21T02:27:00.447Z,5.47
2018-09-21T02:29:28.890Z,5.50
2018-09-21T02:31:57.359Z,5.77
2018-09-21T02:34:25.786Z,6.00
2018-09-21T02:36:54.247Z,6.50
2018-09-21T02:39:22.661Z,5.30
2018-09-21T02:41:51.119Z,5.87
2018-09-21T02:44:19.577Z,5.80
2018-09-21T02:46:48.035Z,5.40
2018-09-21T02:49:16.472Z,5.57
2018-09-21T02:51:44.934Z,5.90
2018-09-21T02:54:13.386Z,6.00
2018-09-21T02:56:42.810Z,5.80
2018-09-21T02:59:11.289Z,5.80
2018-09-21T03:01:39.763Z,5.40
2018-09-21T03:04:08.210Z,5.47
2018-09-21T03:06:36.692Z,5.37
2018-09-21T03:09:08.724Z,6.00
2018-09-21T03:11:37.505Z,5.87
2018-09-21T03:14:05.992Z,6.37
2018-09-21T03:16:34.610Z,6.57
2018-09-21T03:19:03.815Z,5.97
2018-09-21T03:21:32.403Z,6.17
2018-09-21T03:24:00.886Z,6.27
2018-09-21T03:26:29.374Z,6.47
2018-09-21T03:28:57.859Z,6.50
2018-09-21T03:31:26.294Z,5.93
2018-09-21T03:33:54.753Z,6.40
2018-09-21T03:36:23.188Z,6.57
2018-09-21T03:38:51.642Z,6.30
2018-09-21T03:41:20.102Z,6.13
2018-09-21T03:43:48.600Z,6.07
2018-09-21T03:46:17.112Z,6.17
2018-09-21T03:48:45.632Z,6.40
2018-09-21T03:51:14.090Z,5.60
2018-09-21T03:53:42.554Z,6.47
2018-09-21T03:56:10.994Z,6.60
2018-09-21T03:58:39.462Z,5.40
2018-09-21T04:01:08.200Z,5.40
2018-09-21T04:03:39.208Z,5.63
2018-09-21T04:06:07.662Z,5.40
2018-09-21T04:08:36.107Z,5.30
2018-09-21T04:11:04.617Z,5.53
2018-09-21T04:13:33.036Z,5.33
2018-09-21T04:16:02.041Z,5.47
2018-09-21T04:18:30.530Z,5.73
2018-09-21T04:20:59.004Z,6.13
2018-09-21T04:23:27.450Z,5.90
2018-09-21T04:25:55.968Z,5.73
2018-09-21T04:28:24.394Z,5.97
2018-09-21T04:30:52.872Z,6.07
2018-09-21T04:33:21.319Z,6.00
2018-09-21T04:35:49.774Z,6.13
2018-09-21T04:38:18.188Z,6.17
2018-09-21T04:40:46.618Z,5.60
2018-09-21T04:43:15.079Z,5.70
2018-09-21T04:45:43.574Z,5.87
2018-09-21T04:48:11.982Z,5.80
2018-09-21T04:50:40.413Z,5.73
2018-09-21T04:53:08.875Z,5.87
2018-09-21T04:55:37.310Z,5.80
2018-09-21T04:58:05.820Z,6.17
2018-09-21T05:00:34.251Z,5.87
2018-09-21T05:03:02.927Z,6.13
2018-09-21T05:05:31.349Z,5.60
2018-09-21T05:07:59.794Z,5.63
2018-09-21T05:10:28.222Z,5.80
2018-09-21T05:12:56.675Z,5.50
2018-09-21T05:15:25.108Z,5.37
2018-09-21T05:17:53.526Z,5.40
2018-09-21T05:20:22.131Z,5.37
2018-09-21T05:22:50.617Z,5.30
2018-09-21T05:25:19.138Z,5.13
2018-09-21T05:27:47.614Z,5.77
2018-09-21T05:30:16.641Z,5.63
2018-09-21T05:32:45.074Z,4.70
2018-09-21T05:35:13.670Z,5.03
2018-09-21T05:37:42.062Z,5.03
2018-09-21T05:40:14.651Z,5.40
2018-09-21T05:42:43.072Z,5.30
2018-09-21T05:45:11.637Z,5.20
2018-09-21T05:47:40.249Z,4.90
2018-09-21T05:50:08.782Z,5.13
2018-09-21T05:52:37.184Z,5.50
2018-09-21T05:55:05.891Z,5.60
2018-09-21T05:57:34.327Z,4.70
2018-09-21T06:00:02.775Z,5.43
2018-09-21T06:02:31.263Z,5.43
2018-09-21T06:05:04.529Z,5.73
2018-09-21T06:07:33.303Z,5.40
2018-09-21T06:10:01.965Z,5.50
2018-09-21T06:12:30.410Z,5.40
2018-09-21T06:14:58.822Z,5.37
2018-09-21T06:17:27.270Z,5.17
2018-09-21T06:19:55.715Z,5.07
2018-09-21T06:22:24.438Z,5.30
2018-09-21T06:24:52.855Z,5.37
2018-09-21T06:27:21.596Z,5.30
2018-09-21T06:29:50.015Z,5.47
2018-09-21T06:32:18.459Z,5.67
2018-09-21T06:34:46.924Z,5.33
2018-09-21T06:37:15.406Z,5.37
2018-09-21T06:39:43.833Z,5.53
2018-09-21T06:42:12.298Z,4.57
2018-09-21T06:44:40.936Z,4.90
2018-09-21T06:47:09.385Z,4.67
2018-09-21T06:49:37.775Z,4.90
2018-09-21T06:52:06.412Z,4.73
2018-09-21T06:54:34.861Z,4.40
2018-09-21T06:57:03.643Z,5.00
2018-09-21T06:59:32.113Z,4.90
2018-09-21T07:02:00.570Z,5.23
2018-09-21T07:04:29.026Z,4.30
2018-09-21T07:06:57.438Z,4.93
2018-09-21T07:09:28.900Z,4.27
2018-09-21T07:11:57.327Z,4.33
2018-09-21T07:14:25.745Z,4.53
2018-09-21T07:16:54.134Z,4.13
2018-09-21T07:19:22.654Z,4.20
2018-09-21T07:21:51.077Z,4.33
2018-09-21T07:24:19.554Z,4.00
2018-09-21T07:26:47.950Z,4.90
2018-09-21T07:29:16.408Z,3.67
2018-09-21T07:31:44.811Z,4.03
2018-09-21T07:34:13.234Z,3.80
2018-09-21T07:36:41.626Z,4.80
2018-09-21T07:39:10.082Z,4.43
2018-09-21T07:41:38.482Z,4.33
2018-09-21T07:44:06.930Z,3.90
2018-09-21T07:46:35.355Z,4.40
2018-09-21T07:49:03.793Z,4.08
2018-09-21T07:51:32.240Z,3.92
2018-09-21T07:54:00.637Z,3.87
2018-09-21T07:56:29.078Z,4.20
2018-09-21T07:58:57.533Z,3.77
2018-09-21T08:01:25.961Z,3.80
2018-09-21T08:03:54.353Z,4.28
2018-09-21T08:06:22.774Z,4.42
2018-09-21T08:08:51.178Z,4.37
2018-09-21T08:11:19.611Z,3.75
2018-09-21T08:13:48.002Z,12.05
2018-09-21T08:16:16.426Z,11.50
2018-09-21T08:18:44.862Z,5.20
2018-09-21T08:21:13.321Z,6.40
2018-09-21T08:23:41.758Z,4.10
2018-09-21T08:26:10.183Z,4.00
2018-09-21T08:28:38.573Z,4.30
2018-09-21T08:31:07.001Z,4.00
2018-09-21T08:33:35.396Z,4.55
2018-09-21T08:36:03.837Z,3.90
2018-09-21T08:38:32.290Z,4.70
2018-09-21T08:41:00.713Z,3.90
2018-09-21T08:43:29.150Z,4.20
2018-09-21T08:45:57.608Z,4.65
2018-09-21T08:48:26.038Z,4.10
2018-09-21T08:50:54.459Z,4.22
2018-09-21T08:53:22.908Z,4.10
2018-09-21T08:55:51.306Z,4.40
2018-09-21T08:58:19.726Z,5.60
2018-09-21T09:00:48.204Z,4.70
2018-09-21T09:03:16.744Z,4.30
2018-09-21T09:05:49.207Z,4.33
2018-09-21T09:08:17.654Z,4.78
2018-09-21T09:10:46.098Z,5.12
2018-09-21T09:13:14.561Z,4.72
2018-09-21T09:15:42.971Z,4.87
2018-09-21T09:18:11.450Z,4.70
2018-09-21T09:20:39.876Z,5.33
2018-09-21T09:23:08.721Z,4.58
2018-09-21T09:25:37.151Z,5.10
2018-09-21T09:28:05.690Z,5.08
2018-09-21T09:30:34.294Z,4.75
2018-09-21T09:33:03.229Z,5.25
2018-09-21T09:35:31.753Z,4.87
2018-09-21T09:38:00.193Z,5.70
2018-09-21T09:40:28.641Z,5.03
2018-09-21T09:42:57.123Z,5.03
2018-09-21T09:45:25.730Z,5.20
2018-09-21T09:47:54.134Z,5.35
2018-09-21T09:50:22.582Z,4.83
2018-09-21T09:52:50.985Z,5.28
2018-09-21T09:55:19.444Z,5.00
2018-09-21T09:57:47.854Z,4.90
2018-09-21T10:00:20.434Z,4.55
2018-09-21T10:02:48.818Z,5.33
2018-09-21T10:05:17.271Z,4.50
2018-09-21T10:07:45.659Z,4.92
2018-09-21T10:10:14.520Z,4.60
2018-09-21T10:12:42.878Z,5.53
2018-09-21T10:15:11.294Z,4.75
2018-09-21T10:17:39.679Z,5.37
2018-09-21T10:20:08.161Z,4.78
2018-09-21T10:22:36.634Z,5.10
2018-09-21T10:25:05.102Z,5.42
2018-09-21T10:27:33.706Z,4.83
2018-09-21T10:30:01.905Z,4.90
2018-09-21T10:32:30.340Z,4.95
2018-09-21T10:34:58.768Z,5.20
2018-09-21T10:37:27.235Z,6.62
2018-09-21T10:39:55.670Z,5.85
2018-09-21T10:42:24.159Z,4.58
2018-09-21T10:44:52.554Z,5.50
2018-09-21T10:47:20.978Z,5.67
2018-09-21T10:49:49.461Z,6.12
2018-09-21T10:52:17.889Z,9.08
2018-09-21T10:54:46.274Z,5.75
2018-09-21T10:57:14.754Z,5.50
2018-09-21T10:59:43.214Z,6.05
2018-09-21T11:02:11.713Z,5.70
2018-09-21T11:04:40.115Z,6.12
2018-09-21T11:07:08.574Z,7.45
2018-09-21T11:09:36.951Z,6.12
2018-09-21T11:12:05.395Z,5.65
2018-09-21T11:14:33.794Z,5.58
2018-09-21T11:17:02.831Z,5.97
2018-09-21T11:19:31.249Z,6.28
2018-09-21T11:21:59.699Z,6.15
2018-09-21T11:24:28.106Z,5.80
2018-09-21T11:26:56.498Z,6.08
2018-09-21T11:29:24.922Z,6.15
2018-09-21T11:31:53.318Z,7.92
2018-09-21T11:34:22.315Z,6.12
2018-09-21T11:36:50.706Z,6.75
2018-09-21T11:39:19.158Z,5.92
2018-09-21T11:41:47.559Z,5.80
2018-09-21T11:44:15.989Z,7.25
2018-09-21T11:46:44.486Z,6.28
2018-09-21T11:49:12.870Z,5.70
2018-09-21T11:51:41.350Z,6.08
2018-09-21T11:54:09.891Z,6.00
2018-09-21T11:56:38.302Z,6.20
2018-09-21T11:59:06.750Z,5.70
2018-09-21T12:01:35.470Z,5.90
2018-09-21T12:04:03.929Z,6.40
2018-09-21T12:06:32.359Z,5.53
2018-09-21T12:09:00.789Z,6.00
2018-09-21T12:11:29.254Z,6.58
2018-09-21T12:13:57.723Z,5.90
2018-09-21T12:16:26.183Z,6.35
2018-09-21T12:18:54.604Z,6.12
2018-09-21T12:21:23.123Z,5.92
2018-09-21T12:23:51.545Z,6.83
2018-09-21T12:26:20.969Z,6.35
2018-09-21T12:28:49.522Z,5.35
2018-09-21T12:31:18.052Z,6.42
2018-09-21T12:33:46.561Z,5.97
2018-09-21T12:36:15.097Z,5.85
2018-09-21T12:38:43.697Z,6.17
2018-09-21T12:41:12.181Z,6.10
2018-09-21T12:43:40.602Z,6.15
2018-09-21T12:46:22.737Z,5.42
2018-09-21T12:48:52.538Z,4.87
2018-09-21T12:51:22.724Z,4.90
2018-09-21T12:53:51.190Z,5.50
2018-09-21T12:56:19.686Z,5.92
2018-09-21T12:58:48.636Z,5.60
2018-09-21T13:01:17.105Z,5.30
2018-09-21T13:03:45.680Z,5.70
2018-09-21T13:06:14.129Z,5.25
2018-09-21T13:08:42.582Z,6.12
2018-09-21T13:11:11.014Z,5.80
2018-09-21T13:13:39.433Z,5.03
2018-09-21T13:16:08.063Z,5.70
2018-09-21T13:18:36.734Z,5.22
2018-09-21T13:21:05.247Z,7.60
2018-09-21T13:23:33.741Z,4.97
2018-09-21T13:26:02.207Z,5.22
2018-09-21T13:28:30.666Z,5.90
2018-09-21T13:30:59.134Z,4.92
2018-09-21T13:33:27.611Z,5.22
2018-09-21T13:35:56.034Z,5.53
2018-09-21T13:38:24.672Z,5.25
2018-09-21T13:40:53.071Z,5.53
2018-09-21T13:43:21.518Z,5.85
2018-09-21T13:45:49.922Z,5.47
2018-09-21T13:48:18.662Z,5.10
2018-09-21T13:50:47.091Z,4.70
2018-09-21T13:53:15.519Z,4.87
2018-09-21T13:55:43.910Z,5.10
2018-09-21T13:58:12.335Z,4.85
2018-09-21T14:00:40.863Z,4.40
2018-09-21T14:03:09.324Z,4.05
2018-09-21T14:05:37.768Z,4.10
2018-09-21T14:08:06.218Z,4.05
2018-09-21T14:10:34.650Z,4.87
2018-09-21T14:13:03.458Z,4.50
2018-09-21T14:15:31.902Z,5.15
2018-09-21T14:18:00.310Z,4.75
2018-09-21T14:20:28.753Z,4.92
2018-09-21T14:22:57.174Z,4.72
2018-09-21T14:25:25.602Z,4.25
2018-09-21T14:27:53.997Z,5.00
2018-09-21T14:30:22.558Z,4.50
2018-09-21T14:32:50.974Z,5.05
2018-09-21T14:35:19.512Z,4.33
2018-09-21T14:37:48.045Z,5.10
2018-09-21T14:40:20.276Z,5.15
2018-09-21T14:42:48.730Z,5.12
2018-09-21T14:45:17.282Z,5.03
2018-09-21T14:47:45.721Z,5.28
2018-09-21T14:50:14.142Z,5.12
2018-09-21T14:52:42.541Z,5.05
2018-09-21T14:55:11.031Z,5.10
2018-09-21T14:57:39.441Z,5.40
2018-09-21T15:00:08.126Z,5.55
2018-09-21T15:02:36.540Z,4.85
2018-09-21T15:05:05.745Z,5.83
2018-09-21T15:07:34.154Z,4.90
2018-09-21T15:10:03.291Z,5.50
2018-09-21T15:12:31.762Z,5.00
2018-09-21T15:15:00.154Z,5.50
2018-09-21T15:17:28.650Z,5.45
2018-09-21T15:19:57.073Z,5.05
2018-09-21T15:22:25.535Z,4.53
2018-09-21T15:24:53.948Z,5.47
2018-09-21T15:27:22.386Z,5.08
2018-09-21T15:29:51.150Z,4.87
2018-09-21T15:32:19.623Z,4.87
2018-09-21T15:34:48.097Z,5.25
2018-09-21T15:37:16.604Z,5.53
2018-09-21T15:39:45.052Z,5.28
2018-09-21T15:42:13.890Z,5.10
2018-09-21T15:44:42.462Z,5.58
2018-09-21T15:47:10.910Z,5.00
2018-09-21T15:49:39.318Z,5.25
2018-09-21T15:52:07.815Z,4.70
2018-09-21T15:54:36.770Z,5.95
2018-09-21T15:57:05.230Z,5.58
2018-09-21T15:59:33.662Z,5.00
2018-09-21T16:02:02.099Z,5.42
2018-09-21T16:04:30.521Z,5.33
2018-09-21T16:06:58.981Z,5.47
2018-09-21T16:09:27.426Z,5.25
2018-09-21T16:11:55.836Z,6.97
2018-09-21T16:14:24.342Z,6.05
2018-09-21T16:16:52.694Z,6.10
2018-09-21T16:19:21.269Z,5.62
2018-09-21T16:21:49.706Z,5.78
2018-09-21T16:24:18.202Z,5.33
2018-09-21T16:26:46.570Z,5.83
2018-09-21T16:29:15.032Z,5.75
2018-09-21T16:31:43.439Z,5.25
2018-09-21T16:34:11.859Z,5.72
2018-09-21T16:36:40.327Z,5.80
2018-09-21T16:39:11.611Z,5.42
2018-09-21T16:41:40.046Z,7.35
2018-09-21T16:44:08.607Z,6.70
2018-09-21T16:46:37.093Z,6.45
2018-09-21T16:49:05.624Z,5.37
2018-09-21T16:51:34.123Z,5.80
2018-09-21T16:54:02.577Z,5.87
2018-09-21T16:56:31.014Z,6.10
2018-09-21T16:58:59.529Z,5.95
2018-09-21T17:01:27.893Z,6.40
2018-09-21T17:03:56.367Z,5.72
2018-09-21T17:06:24.770Z,5.92
2018-09-21T17:08:53.434Z,5.87
2018-09-21T17:11:21.972Z,5.50
2018-09-21T17:13:50.310Z,5.97
2018-09-21T17:16:18.750Z,5.78
2018-09-21T17:18:47.144Z,5.47
2018-09-21T17:21:15.576Z,5.40
2018-09-21T17:23:43.962Z,6.05
2018-09-21T17:26:12.399Z,5.20
2018-09-21T17:28:40.954Z,4.83
2018-09-21T17:31:12.770Z,5.40
2018-09-21T17:33:41.194Z,5.40
2018-09-21T17:36:09.631Z,4.97
2018-09-21T17:38:38.057Z,5.28
2018-09-21T17:41:06.525Z,4.62
2018-09-21T17:43:35.016Z,4.80
2018-09-21T17:46:03.450Z,4.72
2018-09-21T17:48:32.114Z,4.85
2018-09-21T17:51:00.568Z,4.42
2018-09-21T17:53:28.990Z,4.55
2018-09-21T17:55:57.438Z,5.25
2018-09-21T17:58:26.055Z,4.72
2018-09-21T18:00:54.517Z,4.78
2018-09-21T18:03:23.613Z,4.58
2018-09-21T18:05:52.026Z,4.30
2018-09-21T18:08:20.566Z,4.65
2018-09-21T18:10:49.042Z,4.78
2018-09-21T18:13:17.551Z,4.92
2018-09-21T18:15:45.961Z,4.30
2018-09-21T18:18:14.993Z,5.35
2018-09-21T18:20:43.399Z,4.40
2018-09-21T18:23:11.862Z,4.45
2018-09-21T18:25:40.361Z,4.58
2018-09-21T18:28:08.790Z,4.40
2018-09-21T18:30:38.542Z,4.90
2018-09-21T18:33:07.006Z,5.15
2018-09-21T18:35:35.868Z,4.30
2018-09-21T18:38:04.919Z,4.62
2018-09-21T18:40:34.288Z,4.60
2018-09-21T18:43:03.195Z,4.47
2018-09-21T18:45:31.617Z,4.05
2018-09-21T18:48:00.061Z,4.10
2018-09-21T18:50:28.667Z,4.33
2018-09-21T18:52:57.162Z,4.70
2018-09-21T18:55:25.592Z,4.60
2018-09-21T18:57:54.029Z,4.62
2018-09-21T19:00:22.473Z,4.58
2018-09-21T19:02:51.215Z,4.85
2018-09-21T19:05:19.694Z,5.03
2018-09-21T19:07:48.982Z,5.13
2018-09-21T19:10:18.821Z,3.37
2018-09-21T19:12:47.235Z,3.10
2018-09-21T19:15:16.210Z,3.13
2018-09-21T19:17:44.645Z,3.12
2018-09-21T19:20:13.257Z,2.30
2018-09-21T19:22:41.642Z,1.60
2018-09-21T19:25:10.082Z,1.90
2018-09-21T19:27:38.527Z,1.10
2018-09-21T19:30:06.992Z,2.30
2018-09-21T19:32:35.628Z,1.10
2018-09-21T19:35:04.128Z,1.40
2018-09-21T19:37:32.557Z,1.13
2018-09-21T19:40:01.407Z,1.00
2018-09-21T19:42:30.531Z,0.90
2018-09-21T19:44:59.127Z,0.67
2018-09-21T19:47:27.534Z,0.90
2018-09-21T19:49:56.109Z,0.80
2018-09-21T19:52:24.530Z,0.83
2018-09-21T19:54:53.165Z,1.20
2018-09-21T19:57:21.611Z,1.03
2018-09-21T19:59:50.147Z,0.97
2018-09-21T20:02:18.645Z,2.13
2018-09-21T20:04:47.126Z,0.90
2018-09-21T20:07:15.542Z,1.00
2018-09-21T20:09:44.006Z,0.80
2018-09-21T20:12:12.445Z,1.00
2018-09-21T20:14:41.850Z,1.13
2018-09-21T20:17:10.295Z,1.20
2018-09-21T20:19:39.533Z,9.27
2018-09-21T20:22:09.610Z,5.10
2018-09-21T20:24:38.044Z,4.80
2018-09-21T20:27:07.615Z,2.30
2018-09-21T20:29:36.042Z,1.63
2018-09-21T20:32:09.845Z,2.13
2018-09-21T20:34:39.090Z,2.83
2018-09-21T20:37:07.706Z,1.93
2018-09-21T20:39:36.157Z,1.50
2018-09-21T20:42:04.678Z,1.83
2018-09-21T20:44:33.098Z,4.30
2018-09-21T20:47:01.562Z,1.90
2018-09-21T20:49:30.021Z,1.47
2018-09-21T20:52:00.304Z,1.60
2018-09-21T20:54:28.802Z,1.20
2018-09-21T20:56:57.425Z,1.30
2018-09-21T20:59:26.017Z,22.53
2018-09-21T21:01:54.373Z,1.80
2018-09-21T21:04:22.883Z,2.13
2018-09-21T21:06:51.362Z,1.83
2018-09-21T21:09:20.210Z,1.20
2018-09-21T21:11:48.752Z,1.60
2018-09-21T21:14:17.538Z,1.97
2018-09-21T21:16:45.985Z,1.90
2018-09-21T21:19:14.577Z,1.60
2018-09-21T21:21:43.337Z,1.70
2018-09-21T21:24:11.829Z,2.20
2018-09-21T21:26:40.239Z,1.97
2018-09-21T21:29:08.746Z,1.60
2018-09-21T21:31:37.215Z,2.53
2018-09-21T21:34:05.682Z,2.07
2018-09-21T21:36:34.103Z,1.80
2018-09-21T21:39:03.135Z,1.73
2018-09-21T21:41:31.546Z,1.83
2018-09-21T21:43:59.992Z,1.80
2018-09-21T21:46:28.447Z,1.83
2018-09-21T21:48:56.837Z,2.00
2018-09-21T21:51:25.461Z,1.73
2018-09-21T21:53:54.038Z,1.70
2018-09-21T21:56:22.830Z,1.70
2018-09-21T21:58:52.181Z,2.13
2018-09-21T22:01:25.979Z,2.10
2018-09-21T22:03:54.475Z,1.90
2018-09-21T22:06:22.947Z,2.33
2018-09-21T22:08:52.283Z,1.93
2018-09-21T22:11:26.436Z,2.17
2018-09-21T22:14:00.365Z,2.50
2018-09-21T22:16:29.090Z,2.27
2018-09-21T22:18:57.649Z,2.07
2018-09-21T22:21:26.223Z,1.90
2018-09-21T22:23:55.098Z,2.27
2018-09-21T22:26:23.647Z,2.10
2018-09-21T22:28:52.198Z,2.30
2018-09-21T22:31:20.781Z,1.60
2018-09-21T22:33:49.343Z,1.90
2018-09-21T22:36:17.874Z,1.93
2018-09-21T22:38:47.338Z,1.80
2018-09-21T22:41:15.990Z,2.10
2018-09-21T22:43:44.463Z,2.03
2018-09-21T22:46:13.067Z,2.47
2018-09-21T22:48:41.857Z,2.30
2018-09-21T22:51:10.386Z,2.17
2018-09-21T22:53:39.170Z,2.00
2018-09-21T22:56:08.915Z,1.90
2018-09-21T22:58:38.107Z,2.07
2018-09-21T23:01:06.717Z,1.87
2018-09-21T23:03:35.249Z,1.77
2018-09-21T23:06:04.146Z,2.00
2018-09-21T23:08:32.991Z,2.00
2018-09-21T23:11:01.506Z,1.87
2018-09-21T23:13:31.019Z,1.70
2018-09-21T23:15:59.497Z,1.63
2018-09-21T23:18:27.918Z,1.60
2018-09-21T23:20:56.326Z,1.53
2018-09-21T23:23:24.949Z,2.23
2018-09-21T23:25:53.338Z,1.93
2018-09-21T23:28:21.757Z,1.60
2018-09-21T23:30:50.169Z,1.50
2018-09-21T23:33:18.618Z,1.53
2018-09-21T23:35:47.021Z,1.30
2018-09-21T23:38:15.437Z,1.57
2018-09-21T23:40:43.878Z,1.57
2018-09-21T23:43:12.314Z,1.10
2018-09-21T23:45:40.705Z,1.43
2018-09-21T23:48:09.391Z,1.20
2018-09-21T23:50:37.774Z,1.30
2018-09-21T23:53:06.169Z,1.60
2018-09-21T23:55:34.634Z,1.20
2018-09-21T23:58:03.540Z,1.57
